createdAt,value
2023-12-07T00:01:57.734Z,20.80
2023-12-07T00:04:25.685Z,22.47
2023-12-07T00:06:53.653Z,11.23
2023-12-07T00:09:21.578Z,10.87
2023-12-07T00:11:49.418Z,10.70
2023-12-07T00:14:18.120Z,8.27
2023-12-07T00:16:47.302Z,9.17
2023-12-07T00:19:15.286Z,8.90
2023-12-07T00:21:43.162Z,8.40
2023-12-07T00:24:11.102Z,7.10
2023-12-07T00:26:39.328Z,7.30
2023-12-07T00:29:07.285Z,7.67
2023-12-07T00:31:35.172Z,8.20
2023-12-07T00:34:04.742Z,8.03
2023-12-07T00:36:32.590Z,7.07
2023-12-07T00:39:00.451Z,7.57
2023-12-07T00:41:28.315Z,6.07
2023-12-07T00:43:56.187Z,7.20
2023-12-07T00:46:24.336Z,6.67
2023-12-07T00:48:52.212Z,6.57
2023-12-07T00:51:21.462Z,6.77
2023-12-07T00:53:49.508Z,6.13
2023-12-07T00:56:17.349Z,5.83
2023-12-07T00:58:45.185Z,5.60
2023-12-07T01:01:13.128Z,5.60
2023-12-07T01:03:41.776Z,4.80
2023-12-07T01:06:11.222Z,5.80
2023-12-07T01:08:40.613Z,5.90
2023-12-07T01:11:08.493Z,6.10
2023-12-07T01:13:37.212Z,5.80
2023-12-07T01:16:05.495Z,5.50
2023-12-07T01:18:33.982Z,4.80
2023-12-07T01:21:01.912Z,5.13
2023-12-07T01:23:29.807Z,5.40
2023-12-07T01:25:59.072Z,5.57
2023-12-07T01:28:26.984Z,8.23
2023-12-07T01:30:54.949Z,8.00
2023-12-07T01:33:23.049Z,7.10
2023-12-07T01:35:51.550Z,7.40
2023-12-07T01:38:20.465Z,7.13
2023-12-07T01:40:48.337Z,7.23
2023-12-07T01:43:17.587Z,11.00
2023-12-07T01:45:45.671Z,10.97
2023-12-07T01:48:13.599Z,8.57
2023-12-07T01:50:42.090Z,6.47
2023-12-07T01:53:10.520Z,6.20
2023-12-07T01:55:38.791Z,7.07
2023-12-07T01:58:07.819Z,7.03
2023-12-07T02:00:37.273Z,6.67
2023-12-07T02:03:07.264Z,5.17
2023-12-07T02:05:36.499Z,4.50
2023-12-07T02:08:05.909Z,4.70
2023-12-07T02:10:33.874Z,4.77
2023-12-07T02:13:01.875Z,4.37
2023-12-07T02:15:29.840Z,4.60
2023-12-07T02:18:05.178Z,4.83
2023-12-07T02:20:38.607Z,5.37
2023-12-07T02:23:09.813Z,4.80
2023-12-07T02:25:50.366Z,5.63
2023-12-07T02:28:19.747Z,4.73
2023-12-07T02:30:47.902Z,4.90
2023-12-07T02:33:16.899Z,5.00
2023-12-07T02:35:44.889Z,3.87
2023-12-07T02:38:13.387Z,4.30
2023-12-07T02:40:42.488Z,3.67
2023-12-07T02:43:11.043Z,3.67
2023-12-07T02:45:40.719Z,3.67
2023-12-07T02:48:09.485Z,3.70
2023-12-07T02:50:37.373Z,6.27
2023-12-07T02:53:05.229Z,25.73
2023-12-07T02:55:33.143Z,15.50
2023-12-07T02:58:01.123Z,10.27
2023-12-07T03:00:29.029Z,7.37
2023-12-07T03:02:58.243Z,7.00
2023-12-07T03:05:26.157Z,7.07
2023-12-07T03:07:53.972Z,7.20
2023-12-07T03:10:21.971Z,5.90
2023-12-07T03:12:49.888Z,4.70
2023-12-07T03:15:17.789Z,3.80
2023-12-07T03:17:45.786Z,3.83
2023-12-07T03:20:15.316Z,3.37
2023-12-07T03:22:43.236Z,3.37
2023-12-07T03:25:11.335Z,3.90
2023-12-07T03:27:39.288Z,2.87
2023-12-07T03:30:08.710Z,3.27
2023-12-07T03:32:36.594Z,3.43
2023-12-07T03:35:04.726Z,3.50
2023-12-07T03:37:33.952Z,3.60
2023-12-07T03:40:01.884Z,3.40
2023-12-07T03:42:50.066Z,3.60
2023-12-07T03:45:17.975Z,2.63
2023-12-07T03:47:46.026Z,3.10
2023-12-07T03:50:14.276Z,3.07
2023-12-07T03:52:43.747Z,3.27
2023-12-07T03:55:12.404Z,2.73
2023-12-07T03:57:40.507Z,2.80
2023-12-07T04:00:12.849Z,3.30
2023-12-07T04:02:40.015Z,2.80
2023-12-07T04:05:08.391Z,2.70
2023-12-07T04:07:36.561Z,2.57
2023-12-07T04:10:07.193Z,2.80
2023-12-07T04:12:35.080Z,3.07
2023-12-07T04:15:02.981Z,3.30
2023-12-07T04:17:30.944Z,3.53
2023-12-07T04:19:58.817Z,3.17
2023-12-07T04:22:27.012Z,3.10
2023-12-07T04:24:55.080Z,3.20
2023-12-07T04:27:24.314Z,3.77
2023-12-07T04:29:52.179Z,3.60
2023-12-07T04:32:20.027Z,3.70
2023-12-07T04:34:47.906Z,3.57
2023-12-07T04:37:15.757Z,3.30
2023-12-07T04:39:43.733Z,3.77
2023-12-07T04:42:11.608Z,3.53
2023-12-07T04:44:41.030Z,4.33
2023-12-07T04:47:08.903Z,4.83
2023-12-07T04:49:36.859Z,4.50
2023-12-07T04:52:04.988Z,3.50
2023-12-07T04:54:32.821Z,22.67
2023-12-07T04:57:01.028Z,8.50
2023-12-07T04:59:29.055Z,4.57
2023-12-07T05:01:58.252Z,3.70
2023-12-07T05:04:26.160Z,3.23
2023-12-07T05:06:54.166Z,3.53
2023-12-07T05:09:22.826Z,3.00
2023-12-07T05:11:51.207Z,2.50
2023-12-07T05:14:19.155Z,3.22
2023-12-07T05:16:49.429Z,2.93
2023-12-07T05:19:18.861Z,2.73
2023-12-07T05:21:46.847Z,2.30
2023-12-07T05:24:14.812Z,2.90
2023-12-07T05:26:43.653Z,7.03
2023-12-07T05:29:11.637Z,4.60
2023-12-07T05:31:39.545Z,5.03
2023-12-07T05:34:07.573Z,5.67
2023-12-07T05:36:36.833Z,3.77
2023-12-07T05:39:08.183Z,4.87
2023-12-07T05:41:36.092Z,4.37
2023-12-07T05:44:04.877Z,4.23
2023-12-07T05:46:33.780Z,3.80
2023-12-07T05:49:01.771Z,4.37
2023-12-07T05:51:29.669Z,5.47
2023-12-07T05:53:59.191Z,4.80
2023-12-07T05:56:27.244Z,4.50
2023-12-07T05:58:55.134Z,4.97
2023-12-07T06:01:23.159Z,5.37
2023-12-07T06:03:51.116Z,6.00
2023-12-07T06:06:20.000Z,15.77
2023-12-07T06:08:47.886Z,15.37
2023-12-07T06:11:17.381Z,15.90
2023-12-07T06:13:45.307Z,18.97
2023-12-07T06:16:18.173Z,7.53
2023-12-07T06:18:46.678Z,6.53
2023-12-07T06:21:16.459Z,7.00
2023-12-07T06:23:47.417Z,6.53
2023-12-07T06:26:17.219Z,7.40
2023-12-07T06:28:45.347Z,6.10
2023-12-07T06:31:16.138Z,6.80
2023-12-07T06:33:44.355Z,6.93
2023-12-07T06:36:12.614Z,6.33
2023-12-07T06:38:40.811Z,5.80
2023-12-07T06:41:08.832Z,5.23
2023-12-07T06:43:38.133Z,5.03
2023-12-07T06:46:06.255Z,6.33
2023-12-07T06:48:34.123Z,5.93
2023-12-07T06:51:02.214Z,4.20
2023-12-07T06:53:30.125Z,5.83
2023-12-07T06:55:58.180Z,6.20
2023-12-07T06:58:26.626Z,6.90
2023-12-07T07:00:55.898Z,6.60
2023-12-07T07:03:24.078Z,6.30
2023-12-07T07:05:52.357Z,7.93
2023-12-07T07:08:20.430Z,10.37
2023-12-07T07:10:48.805Z,12.63
2023-12-07T07:13:18.176Z,13.27
2023-12-07T07:15:46.336Z,9.80
2023-12-07T07:18:15.959Z,9.10
2023-12-07T07:20:44.055Z,7.97
2023-12-07T07:23:12.046Z,9.40
2023-12-07T07:25:40.773Z,8.03
2023-12-07T07:28:09.065Z,8.00
2023-12-07T07:30:36.956Z,7.80
2023-12-07T07:33:05.118Z,7.17
2023-12-07T07:35:34.483Z,7.87
2023-12-07T07:38:02.394Z,6.80
2023-12-07T07:40:30.337Z,6.93
2023-12-07T07:42:58.223Z,7.70
2023-12-07T07:45:26.162Z,7.90
2023-12-07T07:47:54.157Z,8.27
2023-12-07T07:50:22.268Z,8.00
2023-12-07T07:52:51.527Z,7.90
2023-12-07T07:55:19.515Z,7.30
2023-12-07T07:57:47.404Z,7.10
2023-12-07T08:00:17.194Z,8.47
2023-12-07T08:02:45.113Z,10.13
2023-12-07T08:05:13.789Z,8.20
2023-12-07T08:07:41.750Z,8.03
2023-12-07T08:10:11.646Z,8.17
2023-12-07T08:12:41.898Z,8.00
2023-12-07T08:15:12.219Z,7.53
2023-12-07T08:17:41.632Z,9.10
2023-12-07T08:20:11.425Z,8.57
2023-12-07T08:22:39.388Z,8.50
2023-12-07T08:25:11.586Z,9.87
2023-12-07T08:27:41.642Z,10.10
2023-12-07T08:30:11.392Z,9.57
2023-12-07T08:32:39.817Z,8.37
2023-12-07T08:35:09.666Z,8.50
2023-12-07T08:37:40.672Z,8.37
2023-12-07T08:40:11.047Z,9.83
2023-12-07T08:42:39.026Z,11.13
2023-12-07T08:45:09.114Z,8.07
2023-12-07T08:47:37.066Z,6.00
2023-12-07T08:50:05.676Z,8.60
2023-12-07T08:52:42.163Z,7.77
2023-12-07T08:55:17.025Z,7.77
2023-12-07T08:57:45.026Z,7.37
2023-12-07T09:00:15.268Z,7.40
2023-12-07T09:02:47.383Z,9.13
2023-12-07T09:05:16.660Z,8.90
2023-12-07T09:07:44.664Z,8.90
2023-12-07T09:10:12.998Z,9.27
2023-12-07T09:12:40.892Z,8.10
2023-12-07T09:15:10.848Z,7.13
2023-12-07T09:17:41.127Z,7.93
2023-12-07T09:20:13.325Z,7.00
2023-12-07T09:22:42.892Z,11.90
2023-12-07T09:25:11.216Z,8.90
2023-12-07T09:27:39.605Z,7.60
2023-12-07T09:30:11.824Z,7.10
2023-12-07T09:32:44.122Z,6.47
2023-12-07T09:35:16.186Z,6.63
2023-12-07T09:37:44.625Z,6.93
2023-12-07T09:40:18.925Z,7.60
2023-12-07T09:42:47.521Z,7.87
2023-12-07T09:45:18.045Z,8.60
2023-12-07T09:47:50.093Z,7.27
2023-12-07T09:50:19.873Z,6.50
2023-12-07T09:52:56.924Z,7.70
2023-12-07T09:55:32.986Z,6.53
2023-12-07T09:58:01.016Z,7.27
2023-12-07T10:00:29.862Z,6.77
2023-12-07T10:02:59.141Z,7.17
2023-12-07T10:05:27.757Z,6.37
2023-12-07T10:07:56.005Z,6.67
2023-12-07T10:10:23.953Z,7.07
2023-12-07T10:12:54.805Z,7.07
2023-12-07T10:15:24.343Z,6.33
2023-12-07T10:17:53.433Z,7.13
2023-12-07T10:20:25.337Z,6.53
2023-12-07T10:23:04.196Z,6.27
2023-12-07T10:25:32.722Z,5.37
2023-12-07T10:28:02.055Z,5.40
2023-12-07T10:30:30.178Z,5.73
2023-12-07T10:32:58.133Z,6.60
2023-12-07T10:35:27.909Z,5.97
2023-12-07T10:37:55.852Z,5.33
2023-12-07T10:40:24.102Z,5.17
2023-12-07T10:42:58.701Z,5.83
2023-12-07T10:45:28.198Z,6.20
2023-12-07T10:48:01.071Z,6.07
2023-12-07T10:50:36.055Z,5.43
2023-12-07T10:53:10.978Z,3.63
2023-12-07T10:55:45.529Z,4.83
2023-12-07T10:58:15.448Z,5.97
2023-12-07T11:00:47.934Z,4.80
2023-12-07T11:03:19.219Z,4.50
2023-12-07T11:05:49.663Z,4.80
2023-12-07T11:08:25.349Z,2.90
2023-12-07T11:11:04.499Z,3.00
2023-12-07T11:13:34.052Z,2.73
2023-12-07T11:16:02.532Z,2.90
2023-12-07T11:18:31.152Z,3.33
2023-12-07T11:21:02.088Z,3.30
2023-12-07T11:23:30.578Z,2.90
2023-12-07T11:25:58.571Z,2.70
2023-12-07T11:28:38.180Z,2.60
2023-12-07T11:31:09.336Z,2.27
2023-12-07T11:33:40.329Z,2.40
2023-12-07T11:36:11.666Z,3.10
2023-12-07T11:38:39.924Z,2.73
2023-12-07T11:41:08.237Z,2.33
2023-12-07T11:43:44.844Z,2.47
2023-12-07T11:46:14.014Z,2.30
2023-12-07T11:48:47.494Z,2.40
2023-12-07T11:51:18.318Z,2.30
2023-12-07T11:53:46.290Z,2.43
2023-12-07T11:56:14.665Z,2.50
2023-12-07T11:58:42.631Z,2.43
2023-12-07T12:01:11.157Z,2.50
2023-12-07T12:03:39.381Z,2.00
2023-12-07T12:06:11.234Z,2.83
2023-12-07T12:08:42.905Z,2.27
2023-12-07T12:11:10.778Z,2.10
2023-12-07T12:13:39.591Z,2.13
2023-12-07T12:16:08.972Z,2.00
2023-12-07T12:18:37.190Z,2.37
2023-12-07T12:21:05.928Z,2.23
2023-12-07T12:23:33.815Z,2.37
2023-12-07T12:26:04.137Z,2.37
2023-12-07T12:28:33.879Z,2.20
2023-12-07T12:31:02.158Z,1.77
2023-12-07T12:33:30.060Z,2.30
2023-12-07T12:36:07.819Z,2.23
2023-12-07T12:38:42.439Z,2.30
2023-12-07T12:41:14.454Z,2.53
2023-12-07T12:43:43.728Z,2.20
2023-12-07T12:46:12.946Z,2.33
2023-12-07T12:48:55.386Z,2.10
2023-12-07T12:51:25.186Z,2.17
2023-12-07T12:53:54.044Z,2.40
2023-12-07T12:56:23.921Z,2.43
2023-12-07T12:58:52.072Z,2.40
2023-12-07T13:01:21.997Z,2.40
2023-12-07T13:03:50.387Z,2.17
2023-12-07T13:06:19.088Z,2.30
2023-12-07T13:08:48.002Z,2.37
2023-12-07T13:11:17.864Z,2.60
2023-12-07T13:13:48.336Z,2.60
2023-12-07T13:16:18.065Z,2.10
2023-12-07T13:18:46.449Z,2.37
2023-12-07T13:21:16.648Z,2.27
2023-12-07T13:23:47.082Z,1.93
2023-12-07T13:26:15.374Z,2.07
2023-12-07T13:28:43.323Z,2.10
2023-12-07T13:31:12.581Z,1.50
2023-12-07T13:33:49.711Z,2.00
2023-12-07T13:36:23.957Z,1.90
2023-12-07T13:38:52.102Z,1.50
2023-12-07T13:41:20.668Z,1.67
2023-12-07T13:43:50.292Z,2.27
2023-12-07T13:46:19.833Z,1.53
2023-12-07T13:48:47.890Z,1.50
2023-12-07T13:51:15.798Z,1.60
2023-12-07T13:53:43.618Z,3.93
2023-12-07T13:56:11.632Z,1.93
2023-12-07T13:58:40.239Z,2.53
2023-12-07T14:01:08.499Z,2.30
2023-12-07T14:03:38.284Z,2.13
2023-12-07T14:06:15.074Z,2.40
2023-12-07T14:08:49.501Z,2.70
2023-12-07T14:11:17.375Z,2.10
2023-12-07T14:13:47.226Z,1.90
2023-12-07T14:16:20.132Z,2.30
2023-12-07T14:19:05.189Z,2.10
2023-12-07T14:21:52.396Z,2.53
2023-12-07T14:24:24.087Z,2.20
2023-12-07T14:26:52.023Z,2.37
2023-12-07T14:29:26.480Z,2.10
2023-12-07T14:31:55.574Z,1.87
2023-12-07T14:34:34.194Z,2.87
2023-12-07T14:37:06.549Z,4.90
2023-12-07T14:39:35.383Z,3.83
2023-12-07T14:42:05.487Z,2.53
2023-12-07T14:44:33.470Z,2.43
2023-12-07T14:47:01.423Z,2.47
2023-12-07T14:49:30.684Z,2.90
2023-12-07T14:52:01.345Z,3.40
2023-12-07T14:54:30.551Z,3.00
2023-12-07T14:56:59.478Z,2.27
2023-12-07T14:59:28.197Z,3.10
2023-12-07T15:01:56.030Z,2.80
2023-12-07T15:04:30.865Z,2.80
2023-12-07T15:07:04.589Z,2.70
2023-12-07T15:09:32.834Z,2.70
2023-12-07T15:12:00.877Z,1.90
2023-12-07T15:14:36.639Z,2.77
2023-12-07T15:17:07.695Z,2.70
2023-12-07T15:19:39.529Z,3.13
2023-12-07T15:22:09.868Z,4.47
2023-12-07T15:24:39.544Z,3.30
2023-12-07T15:27:08.926Z,2.60
2023-12-07T15:29:38.574Z,2.57
2023-12-07T15:32:08.048Z,2.20
2023-12-07T15:34:39.336Z,2.60
2023-12-07T15:37:13.899Z,3.23
2023-12-07T15:39:43.083Z,2.70
2023-12-07T15:42:12.058Z,2.33
2023-12-07T15:44:40.546Z,2.00
2023-12-07T15:47:08.743Z,3.23
2023-12-07T15:49:37.272Z,3.07
2023-12-07T15:52:06.281Z,2.90
2023-12-07T15:54:39.771Z,3.00
2023-12-07T15:57:10.717Z,2.87
2023-12-07T15:59:39.605Z,3.07
2023-12-07T16:02:08.160Z,3.53
2023-12-07T16:04:37.154Z,4.80
2023-12-07T16:07:09.892Z,4.10
2023-12-07T16:09:42.482Z,3.67
2023-12-07T16:12:11.798Z,3.43
2023-12-07T16:14:40.458Z,2.93
2023-12-07T16:17:09.473Z,3.93
2023-12-07T16:19:37.651Z,4.80
2023-12-07T16:22:06.804Z,3.60
2023-12-07T16:24:35.572Z,3.00
2023-12-07T16:27:07.880Z,3.67
2023-12-07T16:29:36.834Z,3.23
2023-12-07T16:32:06.070Z,2.97
2023-12-07T16:34:34.151Z,3.33
2023-12-07T16:37:02.173Z,3.60
2023-12-07T16:39:31.145Z,3.07
2023-12-07T16:42:02.277Z,4.00
2023-12-07T16:44:33.036Z,3.63
2023-12-07T16:47:01.140Z,3.67
2023-12-07T16:49:29.221Z,3.57
2023-12-07T16:51:57.177Z,3.77
2023-12-07T16:54:25.217Z,3.20
2023-12-07T16:56:53.305Z,3.47
2023-12-07T16:59:21.521Z,4.40
2023-12-07T17:01:51.231Z,3.57
2023-12-07T17:04:19.731Z,3.90
2023-12-07T17:06:55.727Z,4.10
2023-12-07T17:09:25.964Z,4.90
2023-12-07T17:11:53.934Z,4.83
2023-12-07T17:14:22.049Z,4.03
2023-12-07T17:16:52.107Z,4.50
2023-12-07T17:19:20.382Z,4.63
2023-12-07T17:21:49.460Z,5.80
2023-12-07T17:24:19.482Z,4.77
2023-12-07T17:26:52.644Z,5.03
2023-12-07T17:29:22.896Z,4.90
2023-12-07T17:31:52.202Z,4.33
2023-12-07T17:34:20.280Z,4.83
2023-12-07T17:36:48.459Z,5.33
2023-12-07T17:39:16.784Z,4.60
2023-12-07T17:41:44.822Z,4.43
2023-12-07T17:44:12.852Z,5.30
2023-12-07T17:46:40.776Z,4.23
2023-12-07T17:49:10.384Z,3.90
2023-12-07T17:51:38.353Z,5.10
2023-12-07T17:54:06.538Z,5.07
2023-12-07T17:56:34.557Z,5.20
2023-12-07T17:59:03.947Z,5.13
2023-12-07T18:01:31.883Z,5.53
2023-12-07T18:04:00.709Z,6.27
2023-12-07T18:06:30.294Z,5.53
2023-12-07T18:08:58.342Z,5.90
2023-12-07T18:11:26.523Z,6.47
2023-12-07T18:13:55.160Z,5.07
2023-12-07T18:16:24.353Z,5.00
2023-12-07T18:18:52.792Z,4.60
2023-12-07T18:21:21.280Z,4.57
2023-12-07T18:23:50.600Z,5.00
2023-12-07T18:26:18.796Z,3.43
2023-12-07T18:28:46.752Z,4.13
2023-12-07T18:31:15.466Z,4.20
2023-12-07T18:33:44.178Z,3.30
2023-12-07T18:36:12.286Z,3.30
2023-12-07T18:38:40.210Z,3.37
2023-12-07T18:41:09.460Z,3.20
2023-12-07T18:43:37.310Z,3.13
2023-12-07T18:46:06.913Z,3.23
2023-12-07T18:48:35.189Z,3.83
2023-12-07T18:51:04.421Z,3.50
2023-12-07T18:53:33.206Z,3.03
2023-12-07T18:56:01.441Z,4.13
2023-12-07T18:58:30.689Z,3.40
2023-12-07T19:00:59.293Z,4.00
2023-12-07T19:03:27.190Z,3.23
2023-12-07T19:05:55.220Z,4.43
2023-12-07T19:08:23.769Z,3.90
2023-12-07T19:10:51.726Z,4.00
2023-12-07T19:13:19.699Z,4.50
2023-12-07T19:15:50.344Z,4.53
2023-12-07T19:18:18.518Z,4.40
2023-12-07T19:20:46.468Z,3.60
2023-12-07T19:23:14.332Z,3.80
2023-12-07T19:25:42.275Z,3.67
2023-12-07T19:28:10.104Z,3.73
2023-12-07T19:30:38.047Z,4.07
2023-12-07T19:33:09.137Z,4.17
2023-12-07T19:35:37.083Z,4.50
2023-12-07T19:38:06.111Z,3.60
2023-12-07T19:40:34.000Z,4.03
2023-12-07T19:43:01.911Z,14.10
2023-12-07T19:45:31.061Z,9.07
2023-12-07T19:47:59.137Z,5.73
2023-12-07T19:50:29.390Z,15.00
2023-12-07T19:52:57.313Z,5.33
2023-12-07T19:55:26.458Z,4.73
2023-12-07T19:57:54.291Z,4.97
2023-12-07T20:00:23.223Z,1.97
2023-12-07T20:02:51.212Z,3.83
2023-12-07T20:05:19.389Z,3.63
2023-12-07T20:07:51.566Z,3.10
2023-12-07T20:10:20.441Z,6.93
2023-12-07T20:12:50.431Z,3.90
2023-12-07T20:15:18.807Z,6.67
2023-12-07T20:17:46.952Z,7.63
2023-12-07T20:20:14.986Z,4.20
2023-12-07T20:22:42.786Z,5.07
2023-12-07T20:25:12.020Z,6.33
2023-12-07T20:27:39.834Z,6.30
2023-12-07T20:30:09.952Z,4.40
2023-12-07T20:32:38.292Z,4.47
2023-12-07T20:35:06.982Z,5.00
2023-12-07T20:37:34.850Z,4.50
2023-12-07T20:40:03.603Z,5.80
2023-12-07T20:42:32.868Z,4.60
2023-12-07T20:45:00.907Z,4.87
2023-12-07T20:47:29.266Z,4.53
2023-12-07T20:49:57.505Z,4.30
2023-12-07T20:52:26.514Z,4.93
2023-12-07T20:54:54.993Z,5.50
2023-12-07T20:57:23.017Z,5.20
2023-12-07T20:59:52.387Z,7.50
2023-12-07T21:02:20.924Z,7.20
2023-12-07T21:04:48.821Z,7.87
2023-12-07T21:07:16.763Z,7.50
2023-12-07T21:09:44.756Z,7.80
2023-12-07T21:12:12.834Z,6.40
2023-12-07T21:14:40.915Z,6.90
2023-12-07T21:17:14.233Z,7.00
2023-12-07T21:19:42.140Z,5.43
2023-12-07T21:22:10.126Z,7.97
2023-12-07T21:24:37.971Z,5.20
2023-12-07T21:27:06.327Z,7.10
2023-12-07T21:29:34.207Z,6.07
2023-12-07T21:32:02.016Z,5.53
2023-12-07T21:34:31.275Z,4.30
2023-12-07T21:36:59.457Z,4.97
2023-12-07T21:39:27.299Z,5.43
2023-12-07T21:41:55.148Z,6.50
2023-12-07T21:44:22.987Z,5.23
2023-12-07T21:46:50.814Z,6.13
2023-12-07T21:49:19.223Z,5.83
2023-12-07T21:51:48.459Z,5.77
2023-12-07T21:54:16.340Z,8.70
2023-12-07T21:56:44.198Z,7.10
2023-12-07T21:59:12.644Z,6.40
2023-12-07T22:01:40.490Z,5.90
2023-12-07T22:04:08.452Z,7.27
2023-12-07T22:06:36.540Z,5.93
2023-12-07T22:09:05.763Z,6.57
2023-12-07T22:11:33.664Z,5.50
2023-12-07T22:14:01.532Z,5.53
2023-12-07T22:16:29.367Z,6.47
2023-12-07T22:18:57.442Z,5.83
2023-12-07T22:21:25.360Z,6.03
2023-12-07T22:23:53.197Z,6.23
2023-12-07T22:26:22.419Z,6.13
2023-12-07T22:28:50.252Z,7.13
2023-12-07T22:31:18.119Z,6.33
2023-12-07T22:33:59.986Z,8.13
2023-12-07T22:36:29.384Z,8.77
2023-12-07T22:38:59.081Z,7.10
2023-12-07T22:41:28.798Z,7.37
2023-12-07T22:43:56.850Z,8.20
2023-12-07T22:46:25.446Z,9.20
2023-12-07T22:48:53.457Z,8.13
2023-12-07T22:51:21.388Z,9.53
2023-12-07T22:53:49.325Z,9.17
2023-12-07T22:56:17.203Z,10.40
2023-12-07T22:58:47.358Z,9.60
2023-12-07T23:01:15.249Z,8.70
2023-12-07T23:03:43.248Z,8.23
2023-12-07T23:06:11.182Z,7.67
2023-12-07T23:08:39.083Z,7.00
2023-12-07T23:11:06.976Z,6.93
2023-12-07T23:13:34.826Z,6.80
2023-12-07T23:16:03.995Z,6.17
2023-12-07T23:18:31.967Z,5.87
2023-12-07T23:21:00.066Z,5.73
2023-12-07T23:23:31.534Z,6.10
2023-12-07T23:26:00.390Z,6.00
2023-12-07T23:28:28.318Z,5.53
2023-12-07T23:30:56.140Z,6.63
2023-12-07T23:33:25.403Z,6.57
2023-12-07T23:35:53.438Z,6.20
2023-12-07T23:38:21.475Z,5.70
2023-12-07T23:40:49.312Z,6.53
2023-12-07T23:43:17.361Z,7.07
2023-12-07T23:45:45.413Z,6.73
2023-12-07T23:48:13.409Z,6.43
2023-12-07T23:50:42.864Z,6.03
2023-12-07T23:53:10.804Z,5.83
2023-12-07T23:55:38.896Z,6.23
2023-12-07T23:58:07.178Z,7.20
